Tiempo atmosférico en la estación meteorológica de Marbella, Puerto, Málaga (6 m.)



Fecha
DESCASC
Temp. máxima en grados centígrados (hora)
DESCASC
Temp. mínima en grados centígrados (hora)
DESCASC
Temp. media en grados centígrados
DESCASC
Racha de viento máxima en m/sg (hora)
DESCASC
Velocidad máxima media en intervalos de 10 minutos(hora)
DESCASC
Precipitaciones diarias en mm
DESCASC
Precipitaciones de 00:00 a 06:00 en mm
DESCASC
Precipitaciones de 06:00 a 12:00 en mm
DESCASC
Precipitaciones de 12:00 a 18:00 en mm
DESCASC
Precipitaciones de 18:00 a 24:00 en mm
DESCASC
18-08-2019 27.3 (19:00) 20 (08:00) 23.6 3.89 (16:30) 3.33 (16:30) 0 0 0 0 0
17-08-2019 25.8 (19:10) 19.1 (06:40) 22.4 3.33 (15:00) 2.5 (13:20) 0 0 0 0 0
16-08-2019 25.8 (19:10) 19.6 (08:40) 22.7 2.78 (06:20) 2.22 (06:20) 0 0 0 0 0
15-08-2019 26.9 (18:50) 20.2 (00:00) 23.6 4.17 (09:30) 3.61 (09:30) 0 0 0 0 0
14-08-2019 27.6 (17:10) 21.3 (00:00) 24.4 7.5 (01:10) 6.67 (01:10) 0 0 0 0 0
13-08-2019 28.4 (17:00) 20.3 (00:00) 24.3 6.67 (08:00) 5 (08:10) 0 0 0 0 0
12-08-2019 25 (16:10) 19.6 (00:00) 22.3 6.11 (22:40) 4.72 (22:40) 0 0 0 0 0
11-08-2019 26 (15:00) 20.6 (00:00) 23.3 5.28 (18:40) 4.44 (17:30) 0 0 0 0 0
10-08-2019 26 (18:20) 20.5 (00:00) 23.3 3.89 (07:40) 3.06 (17:50) 0 0 0 0 0
09-08-2019 26.1 (11:10) 20.2 (00:00) 23.2 5.28 (22:30) 3.89 (22:10) 0 0 0 0 0
08-08-2019 26.8 (18:20) 21.6 (00:00) 24.2 3.89 (08:30) 3.06 (08:30) 0 0 0 0 0
07-08-2019 26.7 (16:10) 20.6 (00:00) 23.7 6.39 (02:00) 4.17 (16:40) 0 0 0 0 0
06-08-2019 26.4 (17:10) 21.4 (00:00) 23.9 3.89 (08:50) 2.78 (01:50) 0 0 0 0 0
05-08-2019 26.1 (14:50) 20.9 (00:00) 23.5 4.72 (01:10) 3.89 (01:10) 0 0 0 0 0
04-08-2019 25 (18:50) 20.9 (00:00) 22.9 3.33 (06:20) 2.78 (06:20) 0 0 0 0 0
03-08-2019 25.6 (15:20) 20.1 (00:00) 22.9 6.11 (01:00) 4.72 (01:10) 0 0 0 0 0
02-08-2019 25.4 (19:30) 20.3 (00:00) 22.8 5 (10:00) 4.17 (10:00) 0 0 0 0 0
01-08-2019 27.6 (11:00) 22.2 (00:00) 24.9 5.83 (06:10) 4.72 (06:10) 0 0 0 0 0
31-07-2019 27.8 (18:30) 21.2 (00:00) 24.5 10.28 (01:50) 7.78 (02:00) 0 0 0 0 0
30-07-2019 25.3 (18:20) 19 (00:00) 22.1 5 (07:00) 4.17 (07:00) 0 0 0 0 0
29-07-2019 25.4 (17:50) 18.9 (00:00) 22.1 6.11 (18:00) 4.72 (01:00) 0 0 0 0 0
28-07-2019 24.8 (18:20) 19.4 (00:00) 22.1 10.28 (00:20) 8.06 (00:40) 0 0 0 0 0
27-07-2019 30 (18:20) 20.4 (00:00) 25.2 18.89 (14:50) 12.78 (14:50) 0 0 0 0 0
26-07-2019 28.3 (13:40) 21.3 (00:00) 24.8 17.5 (17:00) 13.61 (17:00) 0 0 0 0 0
25-07-2019 27.4 (19:40) 21.3 (00:00) 24.3 5 (02:50) 3.33 (02:40) 0 0 0 0 0
24-07-2019 31.1 (17:30) 22.9 (00:00) 27 3.89 (07:40) 2.22 (05:20) 0 0 0 0 0
23-07-2019 29.4 (16:30) 22.5 (00:00) 25.9 7.78 (01:10) 5.83 (10:50) 0 0 0 0 0
22-07-2019 28.2 (16:00) 23.7 (00:00) 26 7.22 (23:30) 5.83 (23:59) 0 0 0 0 0
21-07-2019 28.6 (13:50) 21.2 (00:00) 24.9 5 (02:50) 3.06 (02:50) 0 0 0 0 0

Gráficas

Temp. máximas Temp. mínimas Temp. medias Precipitaciones Rachas de viento máximas Velocidades máximas media en intervalos de 10 minutos

Datos horarios

Fecha y hora oficial Temperatura (ºC) Velocidad del viento (km/h) Dirección del viento Racha (km/h) Dirección de racha Precipitación (mm) Presión (hPa) Tendencia (hPa) Humedad (%)
2019-08-19 23:00:00 24.3 3 Nordeste 7 Nordeste 0 -- -- 76
2019-08-19 22:00:00 24.7 7 Nordeste 13 Nordeste 0 -- -- 77
2019-08-19 21:00:00 24.5 10 Nordeste 13 Nordeste 0 -- -- 82
2019-08-19 20:00:00 25.3 8 Nordeste 17 Nordeste 0 -- -- 77
2019-08-19 19:00:00 26 15 Nordeste 21 Nordeste 0 -- -- 76
2019-08-19 18:00:00 27 9 Este 21 Este 0 -- -- 71
2019-08-19 17:00:00 26.7 8 Nordeste 11 Este 0 -- -- 71
2019-08-19 16:00:00 26.3 5 Este 18 Sur 0 -- -- 72
2019-08-19 15:00:00 27.2 8 Sudoeste 17 Sudoeste 0 -- -- 70
2019-08-19 14:00:00 25.9 7 Sudoeste 11 Sudoeste 0 -- -- 75
2019-08-19 13:00:00 24.2 6 Sur 8 Este 0 -- -- 80
2019-08-19 12:00:00 25.1 5 Nordeste 9 Este 0 -- -- 73
2019-08-19 11:00:00 25.5 5 Este 9 Este 0 -- -- 75
2019-08-19 10:00:00 24.7 4 Nordeste 7 Nordeste 0 -- -- 74
2019-08-19 09:00:00 23.5 4 Sur 5 Sudeste 0 -- -- 75
2019-08-19 08:00:00 21.6 0 Calma 5 Norte 0 -- -- 76
2019-08-19 07:00:00 22.1 8 Norte 10 Nordeste 0 -- -- 76
2019-08-19 06:00:00 22.1 8 Nordeste 9 Nordeste 0 -- -- 77
2019-08-19 05:00:00 22.6 0 Calma 14 Este 0 -- -- 78
2019-08-19 04:00:00 22.7 9 Nordeste 12 Nordeste 0 -- -- 82
2019-08-19 03:00:00 23 6 Nordeste 9 Nordeste 0 -- -- 82
2019-08-19 02:00:00 23.9 6 Nordeste 13 Nordeste 0 -- -- 77
2019-08-19 01:00:00 23.8 8 Nordeste 9 Nordeste 0 -- -- 81
2019-08-19 00:00:00 25 2 Nordeste 11 Nordeste 0 -- -- 74
2019-08-18 23:00:00 25.2 9 Nordeste 10 Nordeste 0 -- -- 73
2019-08-18 22:00:00 24.8 3 Oeste 10 Sudoeste 0 -- -- 73
2019-08-18 21:00:00 26.8 6 Norte 10 Nordeste 0 -- -- 62
2019-08-18 20:00:00 26.8 4 Nordeste 9 Nordeste 0 -- -- 69
2019-08-18 19:00:00 27.3 5 Nordeste 11 Este 0 -- -- 66
2019-08-18 18:00:00 26.6 7 Nordeste 13 Este 0 -- -- 66
2019-08-18 17:00:00 25.5 11 Este 14 Este 0 -- -- 71
2019-08-18 16:00:00 24.7 10 Nordeste 13 Nordeste 0 -- -- 72
2019-08-18 15:00:00 24.9 7 Este 10 Este 0 -- -- 75
2019-08-18 14:00:00 24.7 6 Este 9 Este 0 -- -- 73
2019-08-18 13:00:00 23.7 3 Sudeste 4 Sur 0 -- -- 73
2019-08-18 12:00:00 23.4 4 Sur 6 Sur 0 -- -- 82
2019-08-18 11:00:00 23.2 4 Sur 6 Sur 0 -- -- 83
2019-08-18 10:00:00 23.3 2 Este 7 Nordeste 0 -- -- 73
2019-08-18 09:00:00 22 0 Calma 4 Oeste 0 -- -- 84
2019-08-18 08:00:00 20 0 Calma 12 Oeste 0 -- -- 93
2019-08-18 07:00:00 20.4 6 Oeste 9 Oeste 0 -- -- 89
2019-08-18 06:00:00 20.1 4 Norte 8 Oeste 0 -- -- 89
2019-08-18 05:00:00 20.8 5 Oeste 9 Oeste 0 -- -- 93
2019-08-18 04:00:00 21.2 9 Oeste 13 Sudoeste 0 -- -- 93
2019-08-18 03:00:00 21.6 3 Sudoeste 5 Sudoeste 0 -- -- 93
2019-08-18 02:00:00 21.7 4 Sudoeste 4 Sudoeste 0 -- -- 92
2019-08-18 01:00:00 22 0 Calma 6 Sur 0 -- -- 91
2019-08-18 00:00:00 22.8 0 Calma 10 Noroeste 0 -- -- 89
2019-08-17 23:00:00 22.3 6 Oeste 8 Oeste 0 -- -- 92
2019-08-17 22:00:00 22.6 2 Sur 5 Sudeste 0 -- -- 90
2019-08-17 21:00:00 23.3 2 Este 4 Nordeste 0 -- -- 87
2019-08-17 20:00:00 24.6 2 Este 5 Nordeste 0 -- -- 83
2019-08-17 19:00:00 25.2 3 Este 5 Sudeste 0 -- -- 82
2019-08-17 18:00:00 24.1 5 Sur 6 Sur 0 -- -- 84
2019-08-17 17:00:00 24 5 Sudeste 8 Sudeste 0 -- -- 83
2019-08-17 16:00:00 23.4 6 Sudeste 10 Sudeste 0 -- -- 85
2019-08-17 15:00:00 23 9 Sudeste 12 Sudeste 0 -- -- 86
2019-08-17 14:00:00 22.8 4 Sur 11 Sudeste 0 -- -- 86
2019-08-17 13:00:00 22.6 6 Sur 8 Sur 0 -- -- 86
2019-08-17 12:00:00 23 4 Sur 6 Sudoeste 0 -- -- 84
2019-08-17 11:00:00 22.6 3 Oeste 9 Oeste 0 -- -- 92
2019-08-17 10:00:00 21.5 6 Sudoeste 8 Sudoeste 0 -- -- 92
2019-08-17 09:00:00 20.1 3 Noroeste 9 Oeste 0 -- -- 96
2019-08-17 08:00:00 20.1 6 Sudoeste 8 Oeste 0 -- -- 95
2019-08-17 07:00:00 20.3 4 Oeste 5 Oeste 0 -- -- 92
2019-08-17 06:00:00 20.9 3 Sudoeste 6 Sudoeste 0 -- -- 91
2019-08-17 05:00:00 21.8 0 Calma 6 Nordeste 0 -- -- 86
2019-08-17 04:00:00 21.9 0 Calma 8 Noroeste 0 -- -- 83
2019-08-17 03:00:00 22.5 5 Norte 10 Norte 0 -- -- 81
2019-08-17 02:00:00 22.8 5 Norte 8 Norte 0 -- -- 88
2019-08-17 01:00:00 22.1 3 Oeste 5 Sur 0 -- -- 90
2019-08-17 00:00:00 22.7 0 Calma 2 Oeste 0 -- -- 88
2019-08-16 23:00:00 22.8 0 Calma 3 Sudoeste 0 -- -- 88
2019-08-16 22:00:00 23.1 0 Calma 4 Oeste 0 -- -- 88
2019-08-16 21:00:00 23.6 4 Oeste 5 Oeste 0 -- -- 86
2019-08-16 20:00:00 25 0 Calma 4 Sur 0 -- -- 81
2019-08-16 19:00:00 25.5 3 Sudoeste 4 Sur 0 -- -- 78
2019-08-16 18:00:00 25.4 3 Sur 5 Sur 0 -- -- 77
2019-08-16 17:00:00 24.7 3 Sur 8 Sudeste 0 -- -- 81
2019-08-16 16:00:00 23.9 5 Sudeste 6 Sudeste 0 -- -- 83
2019-08-16 15:00:00 23.9 5 Sur 7 Sudeste 0 -- -- 82
2019-08-16 14:00:00 23.7 4 Este 5 Este 0 -- -- 79
2019-08-16 13:00:00 23.7 2 Sur 5 Sur 0 -- -- 80
2019-08-16 12:00:00 23.2 3 Este 6 Sur 0 -- -- 81
2019-08-16 11:00:00 21.6 3 Este 4 Este 0 -- -- 89
2019-08-16 10:00:00 21.7 0 Calma 5 Sudoeste 0 -- -- 90
2019-08-16 09:00:00 20.2 3 Sur 6 Sur 0 -- -- 92
2019-08-16 08:00:00 20 0 Calma 5 Norte 0 -- -- 91
2019-08-16 07:00:00 20 0 Calma 10 Sudoeste 0 -- -- 90
2019-08-16 06:00:00 20.3 5 Sudoeste 9 Sudoeste 0 -- -- 89
2019-08-16 05:00:00 20.7 4 Oeste 4 Oeste 0 -- -- 89
2019-08-16 04:00:00 20.4 0 Calma 4 Oeste 0 -- -- 90
2019-08-16 03:00:00 21.7 3 Sudoeste 4 Oeste 0 -- -- 90
2019-08-16 02:00:00 21.9 0 Calma 4 Norte 0 -- -- 90
2019-08-16 01:00:00 22.1 0 Calma 2 Sudoeste 0 -- -- 89
2019-08-16 00:00:00 22.4 0 Calma 4 Oeste 0 -- -- 88
2019-08-15 23:00:00 22.4 4 Oeste 5 Oeste 0 -- -- 87
2019-08-15 22:00:00 22.9 0 Calma 3 Sudeste 0 -- -- 83
2019-08-15 21:00:00 23.6 2 Este 4 Este 0 -- -- 80
2019-08-15 20:00:00 25.9 0 Calma 3 Sudeste 0 -- -- 73
2019-08-15 19:00:00 26.2 0 Calma 4 Sudoeste 0 -- -- 71
2019-08-15 18:00:00 25.4 3 Sur 4 Sur 0 -- -- 76
2019-08-15 17:00:00 26.1 2 Sudoeste 4 Sudoeste 0 -- -- 77
2019-08-15 16:00:00 24.1 0 Calma 6 Este 0 -- -- 85
2019-08-15 15:00:00 23.8 4 Nordeste 8 Sudeste 0 -- -- 87
2019-08-15 14:00:00 22.6 3 Sudeste 6 Sudeste 0 -- -- 88
2019-08-15 13:00:00 22 3 Sur 7 Sudoeste 0 -- -- 89
2019-08-15 12:00:00 21.5 5 Sudoeste 10 Sudoeste 0 -- -- 91
2019-08-15 11:00:00 20.6 9 Sudoeste 14 Sudoeste 0 -- -- 94
2019-08-15 10:00:00 20.6 11 Sudoeste 15 Sudoeste 0 -- -- 93
2019-08-15 09:00:00 21 12 Sudoeste 13 Sudoeste 0 -- -- 91
2019-08-15 08:00:00 20.6 4 Sudoeste 6 Oeste 0 -- -- 91
2019-08-15 07:00:00 20.6 0 Calma 5 Noroeste 0 -- -- 90
2019-08-15 06:00:00 21.3 2 Oeste 6 Noroeste 0 -- -- 91
2019-08-15 05:00:00 21.6 5 Nordeste 7 Nordeste 0 -- -- 92
2019-08-15 04:00:00 21.7 0 Calma 5 Norte 0 -- -- 92
2019-08-15 03:00:00 21.6 3 Nordeste 5 Nordeste 0 -- -- 93
2019-08-15 02:00:00 22.5 4 Nordeste 5 Nordeste 0 -- -- 93
2019-08-15 01:00:00 22.8 4 Este 5 Nordeste 0 -- -- 92
2019-08-15 00:00:00 23 0 Calma 3 Este 0 -- -- 91
2019-08-14 23:00:00 23.6 0 Calma 0 Calma 0 -- -- 90
2019-08-14 22:00:00 23.8 0 Calma 4 Nordeste 0 -- -- 89
2019-08-14 21:00:00 24.2 4 Nordeste 5 Nordeste 0 -- -- 87
2019-08-14 20:00:00 25.8 2 Este 5 Nordeste 0 -- -- 82
2019-08-14 19:00:00 27 3 Nordeste 5 Nordeste 0 -- -- 77
2019-08-14 18:00:00 27 5 Nordeste 8 Nordeste 0 -- -- 78
2019-08-14 17:00:00 27.3 4 Nordeste 6 Nordeste 0 -- -- 76
2019-08-14 16:00:00 27 5 Nordeste 9 Nordeste 0 -- -- 77
2019-08-14 15:00:00 25.5 8 Nordeste 14 Este 0 -- -- 83
2019-08-14 14:00:00 24.1 9 Nordeste 19 Este 0 -- -- 86
2019-08-14 13:00:00 22.9 14 Este 21 Este 0 -- -- 90
2019-08-14 12:00:00 22.8 17 Este 24 Este 0 -- -- 90
2019-08-14 11:00:00 22.7 18 Sudeste 23 Este 0 -- -- 91
2019-08-14 10:00:00 23.1 14 Este 17 Este 0 -- -- 89
2019-08-14 09:00:00 23.1 10 Este 16 Este 0 -- -- 93
2019-08-14 08:00:00 21.9 13 Este 21 Este 0 -- -- 95
2019-08-14 07:00:00 21.8 8 Nordeste 13 Nordeste 0 -- -- 94
2019-08-14 06:00:00 22.9 9 Nordeste 19 Este 0 -- -- 94
2019-08-14 05:00:00 21.9 11 Este 19 Este 0 -- -- 95
2019-08-14 04:00:00 22.3 18 Este 23 Este 0 -- -- 92
2019-08-14 03:00:00 22.6 20 Este 23 Este 0 -- -- 91
2019-08-14 02:00:00 22.8 18 Este 27 Este 0 -- -- 88
2019-08-14 01:00:00 23.4 23 Este 26 Este 0 -- -- 85
2019-08-14 00:00:00 23.9 7 Nordeste 10 Nordeste 0 -- -- 85
2019-08-13 23:00:00 24.5 4 Este 8 Nordeste 0 -- -- 84
2019-08-13 22:00:00 25.1 4 Este 9 Nordeste 0 -- -- 83
2019-08-13 21:00:00 25.8 5 Nordeste 8 Nordeste 0 -- -- 80
2019-08-13 20:00:00 27.5 0 Calma 3 Sudeste 0 -- -- 74
2019-08-13 19:00:00 27.7 0 Calma 7 Este 0 -- -- 74
2019-08-13 18:00:00 28.3 6 Este 9 Nordeste 0 -- -- 73
2019-08-13 17:00:00 28.4 5 Nordeste 7 Nordeste 0 -- -- 74
2019-08-13 16:00:00 26.6 3 Sudeste 4 Sudeste 0 -- -- 76
2019-08-13 15:00:00 26.9 2 Sur 6 Sudoeste 0 -- -- 74
2019-08-13 14:00:00 26.8 5 Sudoeste 7 Sudoeste 0 -- -- 75
2019-08-13 13:00:00 24.5 5 Sudoeste 12 Sur 0 -- -- 83
2019-08-13 12:00:00 23.1 11 Sudeste 17 Sudeste 0 -- -- 85
2019-08-13 11:00:00 23.8 10 Sudeste 19 Sudeste 0 -- -- 83
2019-08-13 10:00:00 23 15 Sudeste 18 Sudeste 0 -- -- 87
2019-08-13 09:00:00 23.5 8 Nordeste 22 Este 0 -- -- 85
2019-08-13 08:00:00 23.2 16 Este 24 Este 0 -- -- 86
2019-08-13 07:00:00 22.1 10 Nordeste 18 Nordeste 0 -- -- 82
2019-08-13 06:00:00 21.7 4 Nordeste 10 Nordeste 0 -- -- 63
2019-08-13 05:00:00 23.2 3 Nordeste 14 Nordeste 0 -- -- 53
2019-08-13 04:00:00 24.4 3 Norte 22 Norte 0 -- -- 50
2019-08-13 03:00:00 23.6 5 Norte 13 Norte 0 -- -- 50
2019-08-13 02:00:00 20.6 4 Sudoeste 19 Este 0 -- -- 75
2019-08-13 01:00:00 21.8 14 Este 23 Este 0 -- -- 69
2019-08-13 00:00:00 20.6 6 Oeste 17 Nordeste 0 -- -- 76
2019-08-12 23:00:00 20.7 13 Nordeste 22 Nordeste 0 -- -- 77
2019-08-12 22:00:00 20.7 6 Nordeste 10 Nordeste 0 -- -- 80
2019-08-12 21:00:00 21 5 Este 10 Nordeste 0 -- -- 81
2019-08-12 20:00:00 22.8 3 Sudeste 7 Este 0 -- -- 73
2019-08-12 19:00:00 22.6 3 Este 8 Este 0 -- -- 74
2019-08-12 18:00:00 22.1 5 Sudeste 10 Sudoeste 0 -- -- 75
2019-08-12 17:00:00 23.2 10 Oeste 20 Sudoeste 0 -- -- 70
2019-08-12 16:00:00 24.5 11 Oeste 13 Oeste 0 -- -- 60
2019-08-12 15:00:00 23.3 4 Sudoeste 10 Sur 0 -- -- 69
2019-08-12 14:00:00 22.2 4 Sur 13 Sudoeste 0 -- -- 72
2019-08-12 13:00:00 21 9 Sudoeste 14 Sudoeste 0 -- -- 79
2019-08-12 12:00:00 22.2 6 Oeste 9 Oeste 0 -- -- 78
2019-08-12 11:00:00 21.5 3 Este 8 Este 0 -- -- 78
2019-08-12 10:00:00 21.2 5 Nordeste 8 Nordeste 0 -- -- 76
2019-08-12 09:00:00 21.1 0 Calma 4 Sudeste 0 -- -- 72
2019-08-12 08:00:00 19.7 0 Calma 5 Noroeste 0 -- -- 72
2019-08-12 07:00:00 19.7 2 Noroeste 8 Oeste 0 -- -- 75
2019-08-12 06:00:00 20 4 Oeste 7 Oeste 0 -- -- 79
2019-08-12 05:00:00 20.3 3 Este 6 Norte 0 -- -- 75
2019-08-12 04:00:00 20 2 Norte 8 Este 0 -- -- 80
2019-08-12 03:00:00 21.1 6 Nordeste 9 Nordeste 0 -- -- 72
2019-08-12 02:00:00 20.6 7 Nordeste 14 Nordeste 0 -- -- 80
2019-08-12 01:00:00 21.5 7 Nordeste 12 Nordeste 0 -- -- 75
2019-08-12 00:00:00 21.9 9 Nordeste 15 Nordeste 0 -- -- 74
2019-08-11 23:00:00 22.5 4 Nordeste 11 Este 0 -- -- 69
2019-08-11 22:00:00 24.6 5 Norte 12 Nordeste 0 -- -- 56
2019-08-11 21:00:00 25.3 6 Nordeste 13 Este 0 -- -- 60
2019-08-11 20:00:00 23.8 9 Nordeste 17 Nordeste 0 -- -- 70
2019-08-11 19:00:00 23.7 11 Nordeste 19 Nordeste 0 -- -- 70
2019-08-11 18:00:00 24.3 10 Nordeste 19 Nordeste 0 -- -- 69
2019-08-11 17:00:00 24.1 12 Este 17 Nordeste 0 -- -- 70
2019-08-11 16:00:00 25.5 7 Este 12 Este 0 -- -- 62
2019-08-11 15:00:00 26 3 Este 5 Este 0 -- -- 59
2019-08-11 14:00:00 24.3 2 Sudeste 6 Nordeste 0 -- -- 65
2019-08-11 13:00:00 23.5 4 Este 6 Nordeste 0 -- -- 71
2019-08-11 12:00:00 23.9 0 Calma 13 Sudeste 0 -- -- 70
2019-08-11 11:00:00 22.4 9 Sudeste 15 Este 0 -- -- 80
2019-08-11 10:00:00 23.2 5 Este 11 Este 0 -- -- 76
2019-08-11 09:00:00 22.6 0 Calma 9 Este 0 -- -- 79
2019-08-11 08:00:00 20.7 7 Nordeste 10 Este 0 -- -- 83
2019-08-11 07:00:00 21 4 Norte 13 Norte 0 -- -- 78
2019-08-11 06:00:00 21.1 7 Sudeste 10 Nordeste 0 -- -- 81
2019-08-11 05:00:00 21.2 3 Noroeste 18 Nordeste 0 -- -- 79
2019-08-11 04:00:00 21.9 8 Este 14 Nordeste 0 -- -- 81
2019-08-11 03:00:00 21.7 3 Nordeste 15 Nordeste 0 -- -- 87
2019-08-11 02:00:00 22.1 6 Nordeste 9 Nordeste 0 -- -- 84
2019-08-11 01:00:00 22.8 4 Sudoeste 9 Nordeste 0 -- -- 82
2019-08-11 00:00:00 22.5 6 Nordeste 10 Nordeste 0 -- -- 80
2019-08-10 23:00:00 22.9 8 Nordeste 12 Nordeste 0 -- -- 80
2019-08-10 22:00:00 22.8 10 Nordeste 12 Nordeste 0 -- -- 84
2019-08-10 21:00:00 23.1 8 Nordeste 10 Nordeste 0 -- -- 81
2019-08-10 20:00:00 25.4 4 Este 10 Nordeste 0 -- -- 75
2019-08-10 19:00:00 25 6 Nordeste 10 Nordeste 0 -- -- 79
2019-08-10 18:00:00 25.1 10 Nordeste 13 Nordeste 0 -- -- 76
2019-08-10 17:00:00 25.6 5 Este 10 Sudeste 0 -- -- 74
2019-08-10 16:00:00 24.7 5 Este 7 Este 0 -- -- 76
2019-08-10 15:00:00 24.4 3 Sur 9 Sudoeste 0 -- -- 77
2019-08-10 14:00:00 23.2 5 Sur 6 Sudoeste 0 -- -- 80
2019-08-10 13:00:00 23.4 0 Calma 9 Nordeste 0 -- -- 81
2019-08-10 12:00:00 23.2 8 Nordeste 12 Nordeste 0 -- -- 81
2019-08-10 11:00:00 23.8 6 Nordeste 10 Nordeste 0 -- -- 79
2019-08-10 10:00:00 23.1 6 Nordeste 14 Este 0 -- -- 82
2019-08-10 09:00:00 22.4 6 Nordeste 9 Nordeste 0 -- -- 84
2019-08-10 08:00:00 20.9 5 Oeste 14 Nordeste 0 -- -- 90
2019-08-10 07:00:00 21 5 Nordeste 8 Nordeste 0 -- -- 88
2019-08-10 06:00:00 21 0 Calma 8 Norte 0 -- -- 90
2019-08-10 05:00:00 21 3 Nordeste 11 Nordeste 0 -- -- 91
2019-08-10 04:00:00 21.4 9 Nordeste 12 Este 0 -- -- 89
2019-08-10 03:00:00 21.1 8 Nordeste 10 Norte 0 -- -- 90
2019-08-10 02:00:00 21.6 3 Nordeste 9 Nordeste 0 -- -- 88
2019-08-10 01:00:00 22 9 Nordeste 12 Nordeste 0 -- -- 85
2019-08-10 00:00:00 22.5 8 Nordeste 14 Nordeste 0 -- -- 84
2019-08-09 23:00:00 23.9 13 Nordeste 19 Nordeste 0 -- -- 75
2019-08-09 22:00:00 23.5 12 Nordeste 15 Nordeste 0 -- -- 76
2019-08-09 21:00:00 22.8 10 Nordeste 17 Nordeste 0 -- -- 83
2019-08-09 20:00:00 23.6 12 Nordeste 15 Nordeste 0 -- -- 82
2019-08-09 19:00:00 24.3 10 Nordeste 15 Nordeste 0 -- -- 78
2019-08-09 18:00:00 25 8 Nordeste 17 Nordeste 0 -- -- 76
2019-08-09 17:00:00 24.7 12 Este 16 Este 0 -- -- 78
2019-08-09 16:00:00 24.3 5 Este 9 Nordeste 0 -- -- 77
2019-08-09 15:00:00 23.6 4 Este 12 Este 0 -- -- 77
2019-08-09 14:00:00 23.4 4 Este 10 Este 0 -- -- 79
2019-08-09 13:00:00 25.2 6 Este 9 Nordeste 0 -- -- 74
2019-08-09 12:00:00 23.7 4 Sur 10 Sudeste 0 -- -- 75
2019-08-09 11:00:00 25.3 4 Este 6 Este 0 -- -- 51
2019-08-09 10:00:00 23.8 3 Este 6 Nordeste 0 -- -- 65
2019-08-09 09:00:00 22.8 2 Sudoeste 7 Oeste 0 -- -- 66
2019-08-09 08:00:00 21 2 Norte 5 Noroeste 0 -- -- 69
2019-08-09 07:00:00 20.3 2 Nordeste 8 Este 0 -- -- 72
2019-08-09 06:00:00 21.3 5 Oeste 8 Sudoeste 0 -- -- 77
2019-08-09 05:00:00 21.3 0 Calma 8 Oeste 0 -- -- 80
2019-08-09 04:00:00 22 4 Oeste 7 Nordeste 0 -- -- 79
2019-08-09 03:00:00 22 3 Norte 8 Nordeste 0 -- -- 82
2019-08-09 02:00:00 21.7 3 Este 6 Este 0 -- -- 83
2019-08-09 01:00:00 22.1 5 Nordeste 9 Nordeste 0 -- -- 84
2019-08-09 00:00:00 22 3 Norte 10 Nordeste 0 -- -- 88
2019-08-08 23:00:00 22.6 6 Nordeste 9 Nordeste 0 -- -- 85
2019-08-08 22:00:00 22.8 7 Nordeste 9 Nordeste 0 -- -- 85
2019-08-08 21:00:00 24.1 4 Este 8 Nordeste 0 -- -- 80
2019-08-08 20:00:00 25.1 3 Sudeste 5 Sudeste 0 -- -- 75
2019-08-08 19:00:00 26.5 4 Este 9 Nordeste 0 -- -- 72
2019-08-08 18:00:00 25.9 0 Calma 5 Sur 0 -- -- 69
2019-08-08 17:00:00 25.2 4 Sur 8 Sudoeste 0 -- -- 77
2019-08-08 16:00:00 25.2 6 Sudoeste 9 Sudoeste 0 -- -- 77
2019-08-08 15:00:00 25.5 3 Sudeste 5 Sudeste 0 -- -- 76
2019-08-08 14:00:00 25.1 3 Este 5 Este 0 -- -- 76
2019-08-08 13:00:00 24.8 3 Este 8 Este 0 -- -- 75
2019-08-08 12:00:00 25 0 Calma 5 Sur 0 -- -- 74
2019-08-08 11:00:00 23.8 3 Sudeste 7 Nordeste 0 -- -- 76
2019-08-08 10:00:00 23.7 6 Este 10 Nordeste 0 -- -- 77
2019-08-08 09:00:00 22.7 6 Nordeste 14 Nordeste 0 -- -- 83
2019-08-08 08:00:00 21.6 6 Norte 14 Este 0 -- -- 79
2019-08-08 07:00:00 22.1 0 Calma 6 Sudoeste 0 -- -- 71
2019-08-08 06:00:00 22.3 0 Calma 5 Oeste 0 -- -- 76
2019-08-08 05:00:00 21.9 6 Oeste 10 Sudoeste 0 -- -- 82
2019-08-08 04:00:00 22.8 5 Oeste 10 Oeste 0 -- -- 81
2019-08-08 03:00:00 22.6 3 Nordeste 11 Nordeste 0 -- -- 80
2019-08-08 02:00:00 22.9 8 Nordeste 10 Nordeste 0 -- -- 82
2019-08-08 01:00:00 23.2 4 Norte 8 Nordeste 0 -- -- 78
2019-08-08 00:00:00 22.5 6 Este 8 Este 0 -- -- 86
2019-08-07 23:00:00 23.1 6 Nordeste 14 Nordeste 0 -- -- 82
2019-08-07 22:00:00 23.2 6 Nordeste 15 Nordeste 0 -- -- 84
2019-08-07 21:00:00 23.6 10 Nordeste 12 Nordeste 0 -- -- 79
2019-08-07 20:00:00 24.5 2 Nordeste 12 Este 0 -- -- 73
2019-08-07 19:00:00 25.5 6 Este 13 Este 0 -- -- 71
2019-08-07 18:00:00 26 8 Este 21 Sudoeste 0 -- -- 68
2019-08-07 17:00:00 25.7 6 Sur 20 Sudoeste 0 -- -- 68
2019-08-07 16:00:00 26 4 Sur 10 Sudoeste 0 -- -- 69
2019-08-07 15:00:00 25.7 3 Sudoeste 10 Sudoeste 0 -- -- 69
2019-08-07 14:00:00 24.8 6 Sur 9 Sur 0 -- -- 73
2019-08-07 13:00:00 24.4 4 Este 6 Sudeste 0 -- -- 78
2019-08-07 12:00:00 25 2 Sudoeste 6 Sudoeste 0 -- -- 72
2019-08-07 11:00:00 22.8 6 Sudoeste 10 Sudoeste 0 -- -- 76
2019-08-07 10:00:00 23.5 2 Sur 8 Este 0 -- -- 72
2019-08-07 09:00:00 22.6 4 Nordeste 9 Nordeste 0 -- -- 70
2019-08-07 08:00:00 21 6 Nordeste 10 Nordeste 0 -- -- 80
2019-08-07 07:00:00 21 6 Nordeste 8 Nordeste 0 -- -- 77
2019-08-07 06:00:00 21.2 3 Noroeste 10 Oeste 0 -- -- 79
2019-08-07 05:00:00 22 0 Calma 9 Nordeste 0 -- -- 79
2019-08-07 04:00:00 22.1 3 Nordeste 13 Nordeste 0 -- -- 86
2019-08-07 03:00:00 22.3 10 Nordeste 18 Nordeste 0 -- -- 84
2019-08-07 02:00:00 22.5 9 Sudeste 23 Este 0 -- -- 84
2019-08-07 01:00:00 22.2 4 Norte 6 Nordeste 0 -- -- 85
2019-08-07 00:00:00 22.7 5 Sudoeste 10 Sur 0 -- -- 86
2019-08-06 23:00:00 23.6 0 Calma 9 Noroeste 0 -- -- 75
2019-08-06 22:00:00 23.3 9 Nordeste 12 Nordeste 0 -- -- 74
2019-08-06 21:00:00 23.6 7 Nordeste 9 Nordeste 0 -- -- 73
2019-08-06 20:00:00 25.2 5 Este 7 Este 0 -- -- 59
2019-08-06 19:00:00 25.1 4 Sudeste 6 Sudeste 0 -- -- 72
2019-08-06 18:00:00 25.2 3 Sudeste 7 Sudoeste 0 -- -- 67
2019-08-06 17:00:00 25 4 Sur 8 Sur 0 -- -- 72
2019-08-06 16:00:00 25.4 2 Sur 6 Sudeste 0 -- -- 64
2019-08-06 15:00:00 25.4 4 Sudoeste 8 Sudoeste 0 -- -- 71
2019-08-06 14:00:00 25.2 3 Este 7 Sudeste 0 -- -- 72
2019-08-06 13:00:00 24.8 5 Sudoeste 8 Sudoeste 0 -- -- 66
2019-08-06 12:00:00 24.6 2 Sudeste 9 Sudeste 0 -- -- 73
2019-08-06 11:00:00 24 3 Este 6 Sudeste 0 -- -- 76
2019-08-06 10:00:00 24.2 2 Sudeste 13 Nordeste 0 -- -- 78
2019-08-06 09:00:00 22.2 6 Sudeste 14 Sur 0 -- -- 84
2019-08-06 08:00:00 21.6 2 Noroeste 10 Sudoeste 0 -- -- 83
2019-08-06 07:00:00 21.6 0 Calma 12 Sudoeste 0 -- -- 86
2019-08-06 06:00:00 22 6 Oeste 10 Oeste 0 -- -- 87
2019-08-06 05:00:00 22.4 3 Este 9 Norte 0 -- -- 85
2019-08-06 04:00:00 22.2 3 Nordeste 8 Nordeste 0 -- -- 85
2019-08-06 03:00:00 22.7 8 Norte 12 Nordeste 0 -- -- 84
2019-08-06 02:00:00 21.9 7 Nordeste 13 Nordeste 0 -- -- 91
2019-08-06 01:00:00 22.1 3 Nordeste 8 Sudeste 0 -- -- 89
2019-08-06 00:00:00 23.5 2 Nordeste 9 Nordeste 0 -- -- 83
2019-08-05 23:00:00 23.6 0 Calma 6 Noroeste 0 -- -- 79
2019-08-05 22:00:00 22.6 3 Norte 10 Nordeste 0 -- -- 84
2019-08-05 21:00:00 23.5 9 Nordeste 10 Nordeste 0 -- -- 84
2019-08-05 20:00:00 25 4 Este 9 Este 0 -- -- 76
2019-08-05 19:00:00 25.9 6 Nordeste 9 Nordeste 0 -- -- 69
2019-08-05 18:00:00 25 4 Este 5 Sudeste 0 -- -- 78
2019-08-05 17:00:00 24.4 4 Sudeste 6 Sudeste 0 -- -- 77
2019-08-05 16:00:00 24.8 3 Sur 5 Sur 0 -- -- 76
2019-08-05 15:00:00 25.3 2 Sur 8 Sudoeste 0 -- -- 75
2019-08-05 14:00:00 23.7 5 Sur 9 Este 0 -- -- 85
2019-08-05 13:00:00 25.1 5 Este 12 Sur 0 -- -- 80
2019-08-05 12:00:00 23.2 9 Sudoeste 10 Sudoeste 0 -- -- 84
2019-08-05 11:00:00 23.7 5 Sudoeste 6 Sudoeste 0 -- -- 81
2019-08-05 10:00:00 23.6 3 Sudoeste 8 Sudoeste 0 -- -- 81
2019-08-05 09:00:00 21.7 6 Sudoeste 9 Sur 0 -- -- 90
2019-08-05 08:00:00 21.2 3 Oeste 5 Oeste 0 -- -- 93
2019-08-05 07:00:00 20.9 2 Sudoeste 3 Norte 0 -- -- 93
2019-08-05 06:00:00 21.1 2 Nordeste 4 Nordeste 0 -- -- 93
2019-08-05 05:00:00 21.2 3 Sudeste 6 Sudeste 0 -- -- 92
2019-08-05 04:00:00 21 0 Calma 10 Sudeste 0 -- -- 92
2019-08-05 03:00:00 21 3 Este 6 Nordeste 0 -- -- 92
2019-08-05 02:00:00 21.1 4 Norte 17 Este 0 -- -- 92
2019-08-05 01:00:00 21.3 12 Este 15 Sudeste 0 -- -- 90
2019-08-05 00:00:00 21.2 7 Nordeste 9 Nordeste 0 -- -- 90
2019-08-04 23:00:00 21.3 8 Nordeste 10 Este 0 -- -- 90
2019-08-04 22:00:00 22 8 Este 12 Este 0 -- -- 88
2019-08-04 21:00:00 23 9 Nordeste 11 Nordeste 0 -- -- 80
2019-08-04 20:00:00 24 3 Sur 5 Sur 0 -- -- 75
2019-08-04 19:00:00 24.3 4 Sudoeste 6 Sur 0 -- -- 75
2019-08-04 18:00:00 24.1 4 Sudeste 6 Sudeste 0 -- -- 76
2019-08-04 17:00:00 23.7 4 Sudeste 6 Sudeste 0 -- -- 78
2019-08-04 16:00:00 24.1 3 Sudeste 6 Sudeste 0 -- -- 77
2019-08-04 15:00:00 23.2 5 Este 7 Sur 0 -- -- 78
2019-08-04 14:00:00 23.1 4 Sur 6 Sur 0 -- -- 79
2019-08-04 13:00:00 23.6 2 Sudeste 8 Sur 0 -- -- 75
2019-08-04 12:00:00 22.7 7 Sur 9 Sur 0 -- -- 79
2019-08-04 11:00:00 23.7 4 Sudoeste 7 Sudoeste 0 -- -- 76
2019-08-04 10:00:00 23.5 0 Calma 4 Sudeste 0 -- -- 79
2019-08-04 09:00:00 22.3 2 Sudoeste 8 Oeste 0 -- -- 84
2019-08-04 08:00:00 21.1 4 Sudoeste 10 Oeste 0 -- -- 89
2019-08-04 07:00:00 21.1 4 Sudoeste 12 Sudoeste 0 -- -- 89
2019-08-04 06:00:00 21.4 7 Sur 8 Sur 0 -- -- 89
2019-08-04 05:00:00 22.2 3 Norte 8 Norte 0 -- -- 87
2019-08-04 04:00:00 21.5 5 Nordeste 12 Nordeste 0 -- -- 86
2019-08-04 03:00:00 22.5 7 Nordeste 10 Norte 0 -- -- 83
2019-08-04 02:00:00 21.9 6 Nordeste 9 Nordeste 0 -- -- 89
2019-08-04 01:00:00 21.6 4 Nordeste 4 Nordeste 0 -- -- 90
2019-08-04 00:00:00 21.8 3 Sudoeste 8 Sudoeste 0 -- -- 89
2019-08-03 23:00:00 22 7 Sudoeste 13 Sudoeste 0 -- -- 86
2019-08-03 22:00:00 22.4 10 Sudoeste 15 Sudoeste 0 -- -- 88
2019-08-03 21:00:00 23.1 7 Sudoeste 10 Sudoeste 0 -- -- 83
2019-08-03 20:00:00 24.5 4 Sudoeste 7 Sudoeste 0 -- -- 78
2019-08-03 19:00:00 25 5 Sudoeste 8 Sur 0 -- -- 75
2019-08-03 18:00:00 24.5 4 Sudoeste 8 Sur 0 -- -- 78
2019-08-03 17:00:00 23.3 6 Sur 10 Sur 0 -- -- 82
2019-08-03 16:00:00 25 6 Sudoeste 9 Sudoeste 0 -- -- 80
2019-08-03 15:00:00 24.3 5 Sudoeste 8 Sur 0 -- -- 79
2019-08-03 14:00:00 23 4 Sur 13 Sur 0 -- -- 83
2019-08-03 13:00:00 24.5 6 Sudoeste 8 Sudoeste 0 -- -- 73
2019-08-03 12:00:00 23.8 3 Sudoeste 6 Sur 0 -- -- 76
2019-08-03 11:00:00 23.1 3 Sur 5 Sur 0 -- -- 75
2019-08-03 10:00:00 23.5 3 Sudeste 7 Este 0 -- -- 76
2019-08-03 09:00:00 23 6 Nordeste 9 Norte 0 -- -- 76
2019-08-03 08:00:00 20.8 3 Norte 6 Noroeste 0 -- -- 88
2019-08-03 07:00:00 21 0 Calma 9 Norte 0 -- -- 85
2019-08-03 06:00:00 21.6 5 Noroeste 9 Norte 0 -- -- 83
2019-08-03 05:00:00 21.1 0 Calma 5 Oeste 0 -- -- 84
2019-08-03 04:00:00 21.7 4 Oeste 6 Oeste 0 -- -- 81
2019-08-03 03:00:00 20.9 5 Sudoeste 10 Sur 0 -- -- 84
2019-08-03 02:00:00 21.3 5 Nordeste 20 Este 0 -- -- 81
2019-08-03 01:00:00 20.4 16 Este 22 Este 0 -- -- 90
2019-08-03 00:00:00 20.3 12 Nordeste 16 Este 0 -- -- 93
2019-08-02 23:00:00 20.8 13 Nordeste 15 Nordeste 0 -- -- 92
2019-08-02 22:00:00 21 8 Nordeste 10 Este 0 -- -- 92
2019-08-02 21:00:00 22.7 8 Nordeste 11 Nordeste 0 -- -- 90
2019-08-02 20:00:00 24.3 7 Nordeste 9 Este 0 -- -- 83
2019-08-02 19:00:00 24.8 6 Nordeste 12 Nordeste 0 -- -- 82
2019-08-02 18:00:00 24.8 5 Nordeste 11 Nordeste 0 -- -- 82
2019-08-02 17:00:00 23.8 11 Nordeste 15 Nordeste 0 -- -- 84
2019-08-02 16:00:00 23.7 7 Nordeste 15 Este 0 -- -- 83
2019-08-02 15:00:00 24.6 4 Nordeste 14 Nordeste 0 -- -- 79
2019-08-02 14:00:00 24.4 10 Este 13 Este 0 -- -- 79
2019-08-02 13:00:00 22.9 7 Este 10 Este 0 -- -- 84
2019-08-02 12:00:00 24.5 2 Nordeste 9 Nordeste 0 -- -- 81
2019-08-02 11:00:00 22.8 6 Nordeste 15 Sudoeste 0 -- -- 86
2019-08-02 10:00:00 21.4 15 Sudoeste 18 Sudoeste 0 -- -- 88
2019-08-02 09:00:00 22.3 5 Sudoeste 7 Sudoeste 0 -- -- 88
2019-08-02 08:00:00 21.6 2 Oeste 5 Oeste 0 -- -- 91
2019-08-02 07:00:00 22 3 Norte 10 Nordeste 0 -- -- 91
2019-08-02 06:00:00 21.9 7 Nordeste 10 Nordeste 0 -- -- 90
2019-08-02 05:00:00 21.1 9 Nordeste 14 Este 0 -- -- 89
2019-08-02 04:00:00 22.9 7 Nordeste 10 Norte 0 -- -- 81
2019-08-02 03:00:00 22.6 3 Norte 6 Nordeste 0 -- -- 85
2019-08-02 02:00:00 22.5 5 Nordeste 8 Nordeste 0 -- -- 86
2019-08-02 01:00:00 22.9 2 Sur 5 Oeste 0 -- -- 83
2019-08-02 00:00:00 23 0 Calma 12 Oeste 0 -- -- 82
2019-08-01 23:00:00 23.7 9 Oeste 14 Oeste 0 -- -- 78
2019-08-01 22:00:00 24.1 6 Oeste 12 Sudoeste 0 -- -- 77
2019-08-01 21:00:00 24.3 10 Sudoeste 13 Oeste 0 -- -- 76
2019-08-01 20:00:00 24.4 11 Sudoeste 19 Sudoeste 0 -- -- 78
2019-08-01 19:00:00 26.4 13 Oeste 16 Oeste 0 -- -- 70
2019-08-01 18:00:00 26.6 10 Sudoeste 13 Sudoeste 0 -- -- 72
2019-08-01 17:00:00 26.9 11 Sudoeste 14 Sudoeste 0 -- -- 71
2019-08-01 16:00:00 26.1 10 Sudoeste 13 Sudoeste 0 -- -- 75
2019-08-01 15:00:00 25.8 10 Sudoeste 15 Sudoeste 0 -- -- 75
2019-08-01 14:00:00 25.7 8 Sudoeste 12 Sudoeste 0 -- -- 75
2019-08-01 13:00:00 26.5 7 Sudoeste 9 Sudoeste 0 -- -- 73
2019-08-01 12:00:00 26.1 5 Sur 6 Sur 0 -- -- 72
2019-08-01 11:00:00 27.6 3 Este 6 Este 0 -- -- 65
2019-08-01 10:00:00 26.6 2 Este 6 Norte 0 -- -- 68
2019-08-01 09:00:00 25.8 3 Este 12 Nordeste 0 -- -- 72
2019-08-01 08:00:00 23.6 9 Nordeste 17 Nordeste 0 -- -- 80
2019-08-01 07:00:00 23.3 13 Nordeste 21 Nordeste 0 -- -- 81
2019-08-01 06:00:00 22.5 12 Nordeste 18 Este 0 -- -- 83
2019-08-01 05:00:00 22.9 13 Nordeste 18 Nordeste 0 -- -- 83
2019-08-01 04:00:00 22.7 8 Este 15 Nordeste 0 -- -- 85
2019-08-01 03:00:00 23.2 5 Nordeste 6 Norte 0 -- -- 81
2019-08-01 02:00:00 23.4 5 Nordeste 10 Nordeste 0 -- -- 81
2019-08-01 01:00:00 22.7 9 Nordeste 17 Este 0 -- -- 83
2019-08-01 00:00:00 22.9 14 Este 21 Este 0 -- -- 81
2019-07-31 23:00:00 23.5 15 Nordeste 27 Este 0 -- -- 81
2019-07-31 22:00:00 22.8 21 Este 26 Este 0 -- -- 81
2019-07-31 21:00:00 23.1 8 Nordeste 22 Este 0 -- -- 80
2019-07-31 20:00:00 24.7 16 Este 22 Este 0 -- -- 75
2019-07-31 19:00:00 26.7 9 Este 13 Nordeste 0 -- -- 68
2019-07-31 18:00:00 26.3 7 Este 23 Sudeste 0 -- -- 69
2019-07-31 17:00:00 24.1 21 Sudeste 27 Este 0 -- -- 74
2019-07-31 16:00:00 25.6 14 Este 20 Este 0 -- -- 69
2019-07-31 15:00:00 24.9 16 Este 24 Este 0 -- -- 72
2019-07-31 14:00:00 25.2 20 Este 27 Este 0 -- -- 71
2019-07-31 13:00:00 25.4 18 Este 26 Este 0 -- -- 72
2019-07-31 12:00:00 24.9 20 Nordeste 27 Este 0 -- -- 74
2019-07-31 11:00:00 23.7 19 Este 30 Este 0 -- -- 75
2019-07-31 10:00:00 23.8 20 Este 34 Nordeste 0 -- -- 74
2019-07-31 09:00:00 23.9 24 Nordeste 34 Nordeste 0 -- -- 70
2019-07-31 08:00:00 23.3 11 Nordeste 17 Nordeste 0 -- -- 71
2019-07-31 07:00:00 22.8 4 Norte 14 Norte 0 -- -- 74
2019-07-31 06:00:00 21.7 6 Nordeste 9 Nordeste 0 -- -- 81
2019-07-31 05:00:00 21.7 3 Noroeste 26 Sudeste 0 -- -- 81
2019-07-31 04:00:00 22.7 8 Nordeste 32 Este 0 -- -- 76
2019-07-31 03:00:00 23.8 18 Este 35 Este 0 -- -- 68
2019-07-31 02:00:00 22.1 28 Este 37 Este 0 -- -- 83
2019-07-31 01:00:00 24 8 Nordeste 15 Norte 0 -- -- 60
2019-07-31 00:00:00 21.2 9 Nordeste 12 Nordeste 0 -- -- 85
2019-07-30 23:00:00 21 5 Sur 6 Sur 0 -- -- 87
2019-07-30 22:00:00 22.1 2 Este 5 Sudeste 0 -- -- 85
2019-07-30 21:00:00 22.7 0 Calma 4 Oeste 0 -- -- 82
2019-07-30 20:00:00 24 2 Sur 6 Sudeste 0 -- -- 78
2019-07-30 19:00:00 24 3 Sudeste 6 Nordeste 0 -- -- 77
2019-07-30 18:00:00 24.8 4 Nordeste 7 Nordeste 0 -- -- 77
2019-07-30 17:00:00 24.2 3 Este 6 Este 0 -- -- 78
2019-07-30 16:00:00 23.6 0 Calma 5 Este 0 -- -- 78
2019-07-30 15:00:00 23.4 3 Nordeste 8 Este 0 -- -- 79
2019-07-30 14:00:00 23.7 5 Nordeste 8 Nordeste 0 -- -- 75
2019-07-30 13:00:00 23.2 3 Este 12 Nordeste 0 -- -- 79
2019-07-30 12:00:00 21.7 9 Nordeste 12 Nordeste 0 -- -- 85
2019-07-30 11:00:00 21.8 8 Nordeste 11 Nordeste 0 -- -- 84
2019-07-30 10:00:00 23 8 Este 9 Este 0 -- -- 80
2019-07-30 09:00:00 21.6 5 Nordeste 15 Nordeste 0 -- -- 82
2019-07-30 08:00:00 20.4 14 Nordeste 17 Nordeste 0 -- -- 82
2019-07-30 07:00:00 19.2 15 Nordeste 18 Nordeste 0 -- -- 87
2019-07-30 06:00:00 19.7 2 Nordeste 8 Nordeste 0 -- -- 86
2019-07-30 05:00:00 19.6 3 Nordeste 7 Nordeste 0 -- -- 87
2019-07-30 04:00:00 20 3 Norte 9 Nordeste 0 -- -- 85
2019-07-30 03:00:00 20.1 6 Nordeste 10 Nordeste 0 -- -- 86
2019-07-30 02:00:00 21.5 2 Sudoeste 9 Este 0 -- -- 81
2019-07-30 01:00:00 21.7 3 Nordeste 8 Este 0 -- -- 81
2019-07-30 00:00:00 22.1 5 Oeste 8 Oeste 0 -- -- 80
2019-07-29 23:00:00 22 0 Calma 6 Oeste 0 -- -- 79
2019-07-29 22:00:00 21.5 0 Calma 10 Nordeste 0 -- -- 81
2019-07-29 21:00:00 22.7 9 Nordeste 11 Nordeste 0 -- -- 77
2019-07-29 20:00:00 24.8 3 Nordeste 9 Oeste 0 -- -- 69
2019-07-29 19:00:00 23.6 11 Sudoeste 20 Sudoeste 0 -- -- 73
2019-07-29 18:00:00 25.4 10 Sudoeste 22 Sudoeste 0 -- -- 67
2019-07-29 17:00:00 23.1 8 Sur 18 Sudoeste 0 -- -- 77
2019-07-29 16:00:00 23.4 3 Sur 19 Sudoeste 0 -- -- 75
2019-07-29 15:00:00 23.4 9 Sudoeste 16 Sur 0 -- -- 72
2019-07-29 14:00:00 22.7 5 Sur 9 Este 0 -- -- 77
2019-07-29 13:00:00 22.1 5 Este 7 Este 0 -- -- 78
2019-07-29 12:00:00 22.1 4 Sur 9 Oeste 0 -- -- 77
2019-07-29 11:00:00 22.2 8 Sudoeste 14 Sudoeste 0 -- -- 78
2019-07-29 10:00:00 21.5 7 Sudoeste 9 Sudoeste 0 -- -- 80
2019-07-29 09:00:00 21.3 5 Oeste 11 Norte 0 -- -- 81
2019-07-29 08:00:00 20.1 7 Noroeste 12 Noroeste 0 -- -- 85
2019-07-29 07:00:00 19 6 Nordeste 8 Nordeste 0 -- -- 90
2019-07-29 06:00:00 19.1 7 Nordeste 9 Nordeste 0 -- -- 90
2019-07-29 05:00:00 19.1 3 Sudeste 7 Sur 0 -- -- 89
2019-07-29 04:00:00 19.4 4 Norte 11 Nordeste 0 -- -- 88
2019-07-29 03:00:00 19.4 8 Nordeste 17 Nordeste 0 -- -- 88
2019-07-29 02:00:00 19.6 14 Nordeste 20 Nordeste 0 -- -- 88
2019-07-29 01:00:00 20.1 17 Nordeste 19 Nordeste 0 -- -- 86
2019-07-29 00:00:00 19.9 11 Nordeste 14 Nordeste 0 -- -- 86
2019-07-28 23:00:00 20.4 9 Nordeste 13 Este 0 -- -- 84
2019-07-28 22:00:00 21.1 9 Este 18 Nordeste 0 -- -- 78
2019-07-28 21:00:00 22.5 3 Sudoeste 21 Oeste 0 -- -- 73
2019-07-28 20:00:00 23.8 15 Oeste 27 Sudoeste 0 -- -- 68
2019-07-28 19:00:00 23.7 12 Oeste 31 Oeste 0 -- -- 67
2019-07-28 18:00:00 24.6 9 Oeste 27 Sudoeste 0 -- -- 69
2019-07-28 17:00:00 23.7 16 Oeste 26 Sudoeste 0 -- -- 70
2019-07-28 16:00:00 22.6 16 Sudoeste 27 Sudoeste 0 -- -- 75
2019-07-28 15:00:00 21.8 21 Sudoeste 27 Sudoeste 0 -- -- 78
2019-07-28 14:00:00 22.6 11 Sudoeste 27 Sudoeste 0 -- -- 74
2019-07-28 13:00:00 22.2 14 Sudoeste 30 Sudoeste 0 -- -- 77
2019-07-28 12:00:00 21 18 Sudoeste 26 Sudoeste 0 -- -- 79
2019-07-28 11:00:00 20.9 19 Sudoeste 24 Sudoeste 0 -- -- 77
2019-07-28 10:00:00 22.5 4 Sudoeste 6 Sudoeste 0 -- -- 72
2019-07-28 09:00:00 21.4 0 Calma 7 Sudoeste 0 -- -- 80
2019-07-28 08:00:00 19.5 5 Sudoeste 8 Sudoeste 0 -- -- 88
2019-07-28 07:00:00 19.5 7 Nordeste 10 Nordeste 0 -- -- 87
2019-07-28 06:00:00 19.9 3 Sudeste 9 Nordeste 0 -- -- 85
2019-07-28 05:00:00 20.4 0 Calma 14 Sudoeste 0 -- -- 83
2019-07-28 04:00:00 21.3 10 Oeste 28 Sudoeste 0 -- -- 80
2019-07-28 03:00:00 20.7 21 Sudoeste 35 Sudoeste 0 -- -- 84
2019-07-28 02:00:00 21.5 24 Sudoeste 37 Oeste 0 -- -- 83
2019-07-28 01:00:00 21.4 24 Sudoeste 37 Oeste 0 -- -- 82
2019-07-28 00:00:00 22.3 29 Oeste 42 Oeste 0 -- -- 80
2019-07-27 23:00:00 22.5 29 Oeste 39 Oeste 0 -- -- 78
2019-07-26 12:00:00 -- -- -- -- -- -- -- -- --
2019-07-26 11:00:00 -- -- -- -- -- -- -- -- --
2019-07-26 10:00:00 -- -- -- -- -- -- -- -- --
2019-07-26 09:00:00 23.6 6 Nordeste 10 Norte 0 -- -- 79
2019-07-26 08:00:00 22.1 4 Sudoeste 8 Sudoeste 0 -- -- 81
2019-07-26 07:00:00 21.6 3 Nordeste 6 Nordeste 0 -- -- 75
2019-07-26 06:00:00 22 3 Sudoeste 9 Noroeste 0 -- -- 81
2019-07-26 05:00:00 21.6 6 Noroeste 9 Noroeste 0 -- -- 78
2019-07-26 04:00:00 22.2 3 Nordeste 8 Noroeste 0 -- -- 85
2019-07-26 03:00:00 22.2 5 Norte 9 Norte 0 -- -- 86
2019-07-26 02:00:00 22.9 2 Nordeste 7 Nordeste 0 -- -- 92
2019-07-26 01:00:00 23 8 Nordeste 9 Nordeste 0 -- -- 92
2019-07-26 00:00:00 23.2 0 Calma 9 Sur 0 -- -- 92
2019-07-25 23:00:00 23.6 0 Calma 5 Este 0 -- -- 90
2019-07-25 22:00:00 23.7 0 Calma 5 Sur 0 -- -- 90
2019-07-25 21:00:00 24 4 Sur 10 Sudoeste 0 -- -- 88
2019-07-25 20:00:00 26.2 8 Sudoeste 11 Sudoeste 0 -- -- 79
2019-07-25 19:00:00 24.9 7 Sudoeste 11 Sudoeste 0 -- -- 84
2019-07-25 18:00:00 26.1 9 Sudoeste 13 Sudoeste 0 -- -- 82
2019-07-25 17:00:00 24.9 8 Sur 10 Sur 0 -- -- 85
2019-07-25 16:00:00 24.8 7 Sudoeste 12 Sudoeste 0 -- -- 85
2019-07-25 15:00:00 24.6 9 Sudoeste 12 Sudoeste 0 -- -- 85
2019-07-25 14:00:00 24.5 8 Sudoeste 10 Sudoeste 0 -- -- 85
2019-07-25 13:00:00 24.5 8 Sudoeste 10 Sudoeste 0 -- -- 82
2019-07-25 12:00:00 25.3 8 Sudoeste 11 Sudoeste 0 -- -- 80
2019-07-25 11:00:00 24.5 8 Sudoeste 13 Sur 0 -- -- 81
2019-07-25 10:00:00 25.2 5 Sudoeste 8 Sudoeste 0 -- -- 71
2019-07-25 09:00:00 25.4 3 Oeste 6 Oeste 0 -- -- 63
2019-07-25 08:00:00 22.9 2 Norte 5 Oeste 0 -- -- 71
2019-07-25 07:00:00 21.9 3 Oeste 9 Sudoeste 0 -- -- 74
2019-07-25 06:00:00 22.9 6 Sudoeste 13 Norte 0 -- -- 82
2019-07-25 05:00:00 24.1 9 Norte 15 Norte 0 -- -- 59
2019-07-25 04:00:00 24.5 10 Noroeste 16 Noroeste 0 -- -- 62
2019-07-25 03:00:00 24.6 10 Norte 18 Noroeste 0 -- -- 63
2019-07-25 02:00:00 24.9 9 Norte 13 Noroeste 0 -- -- 64
2019-07-25 01:00:00 25.5 6 Norte 11 Norte 0 -- -- 62
2019-07-25 00:00:00 26.1 6 Norte 12 Norte 0 -- -- 60
2019-07-24 23:00:00 26.4 5 Norte 8 Noroeste 0 -- -- 63
2019-07-24 22:00:00 26.4 3 Nordeste 7 Nordeste 0 -- -- 65
2019-07-24 21:00:00 26.4 3 Este 4 Este 0 -- -- 62
2019-07-24 20:00:00 29 0 Calma 3 Nordeste 0 -- -- 55
2019-07-24 19:00:00 28.1 0 Calma 5 Sudoeste 0 -- -- 58
2019-07-24 18:00:00 30.5 4 Oeste 5 Sudoeste 0 -- -- 58
2019-07-24 17:00:00 30.2 2 Sudoeste 8 Sur 0 -- -- 56
2019-07-24 16:00:00 27.2 6 Sudoeste 8 Sudoeste 0 -- -- 69
2019-07-24 15:00:00 27.7 2 Sudeste 7 Sur 0 -- -- 70
2019-07-24 14:00:00 27.2 4 Sur 8 Este 0 -- -- 69
2019-07-24 13:00:00 27.7 4 Sur 6 Sur 0 -- -- 63
2019-07-24 12:00:00 29.1 3 Este 5 Sudeste 0 -- -- 59
2019-07-24 11:00:00 28.2 2 Este 6 Este 0 -- -- 64
2019-07-24 10:00:00 27.1 0 Calma 7 Noroeste 0 -- -- 67
2019-07-24 09:00:00 25.8 5 Norte 11 Noroeste 0 -- -- 71
2019-07-24 08:00:00 23.3 8 Noroeste 14 Norte 0 -- -- 80
2019-07-24 07:00:00 22.9 7 Norte 12 Norte 0 -- -- 82
2019-07-24 06:00:00 23.2 7 Noroeste 13 Noroeste 0 -- -- 81
2019-07-24 05:00:00 23.3 6 Noroeste 13 Noroeste 0 -- -- 82
2019-07-24 04:00:00 23.7 6 Norte 10 Norte 0 -- -- 81
2019-07-24 03:00:00 24 5 Norte 10 Norte 0 -- -- 81
2019-07-24 02:00:00 24.8 5 Nordeste 10 Nordeste 0 -- -- 80
2019-07-24 01:00:00 25 5 Norte 12 Norte 0 -- -- 79
2019-07-24 00:00:00 24.8 4 Nordeste 10 Este 0 -- -- 82
2019-07-23 23:00:00 24.7 7 Nordeste 11 Nordeste 0 -- -- 83
2019-07-23 22:00:00 25.2 7 Nordeste 10 Nordeste 0 -- -- 81
2019-07-23 21:00:00 26 0 Calma 5 Sudeste 0 -- -- 75
2019-07-23 20:00:00 27.6 0 Calma 6 Sur 0 -- -- 67
2019-07-23 19:00:00 27 2 Sur 5 Sudoeste 0 -- -- 68
2019-07-23 18:00:00 29.1 0 Calma 4 Sudoeste 0 -- -- 60
2019-07-23 17:00:00 28.3 2 Sur 8 Nordeste 0 -- -- 62
2019-07-23 16:00:00 28.8 6 Nordeste 8 Nordeste 0 -- -- 62
2019-07-23 15:00:00 27 5 Este 9 Nordeste 0 -- -- 64
2019-07-23 14:00:00 27.4 4 Este 19 Sudeste 0 -- -- 61
2019-07-23 13:00:00 25.4 15 Sudeste 19 Sudeste 0 -- -- 69
2019-07-23 12:00:00 25.1 14 Sur 17 Sudeste 0 -- -- 72
2019-07-23 11:00:00 26.1 18 Este 27 Nordeste 0 -- -- 67
2019-07-23 10:00:00 27.4 7 Nordeste 15 Este 0 -- -- 65
2019-07-23 09:00:00 26.3 5 Norte 13 Norte 0 -- -- 69
2019-07-23 08:00:00 23.8 9 Noroeste 16 Noroeste 0 -- -- 78
2019-07-23 07:00:00 23.5 10 Norte 16 Noroeste 0 -- -- 84
2019-07-23 06:00:00 23.4 3 Noroeste 9 Oeste 0 -- -- 88
2019-07-23 05:00:00 22.5 6 Sudoeste 13 Sudoeste 0 -- -- 89
2019-07-23 04:00:00 23.4 5 Sudoeste 9 Sudoeste 0 -- -- 86
2019-07-23 03:00:00 24.2 4 Oeste 19 Nordeste 0 -- -- 84
2019-07-23 02:00:00 24.9 7 Este 28 Este 0 -- -- 80
2019-07-23 01:00:00 23.8 16 Nordeste 25 Nordeste 0 -- -- 86
2019-07-23 00:00:00 25.1 21 Nordeste 26 Nordeste 0 -- -- 80
2019-07-22 23:00:00 24.8 14 Nordeste 21 Nordeste 0 -- -- 82
2019-07-22 22:00:00 24.2 11 Nordeste 14 Nordeste 0 -- -- 83
2019-07-22 21:00:00 24.4 8 Este 23 Sudeste 0 -- -- 82
2019-07-22 20:00:00 25.3 6 Sudeste 16 Sudeste 0 -- -- 78
2019-07-22 19:00:00 25.9 9 Este 18 Este 0 -- -- 74
2019-07-22 18:00:00 25.7 12 Este 16 Este 0 -- -- 76
2019-07-22 17:00:00 27.5 3 Este 7 Este 0 -- -- 71
2019-07-22 16:00:00 28.2 0 Calma 4 Nordeste 0 -- -- 70
2019-07-22 15:00:00 26.8 3 Este 8 Sudoeste 0 -- -- 77
2019-07-22 14:00:00 26.4 6 Sudoeste 10 Sur 0 -- -- 80
2019-07-22 13:00:00 27.4 4 Sudoeste 9 Oeste 0 -- -- 74
2019-07-22 12:00:00 25.9 9 Sudoeste 10 Sudoeste 0 -- -- 78
2019-07-22 11:00:00 26.9 3 Sur 6 Sudeste 0 -- -- 76
2019-07-22 10:00:00 25.4 3 Sudeste 8 Sudeste 0 -- -- 81
2019-07-22 09:00:00 24.5 3 Nordeste 5 Sudeste 0 -- -- 85
2019-07-22 08:00:00 24.2 0 Calma 6 Sudoeste 0 -- -- 87
2019-07-22 07:00:00 23.8 2 Noroeste 6 Sudoeste 0 -- -- 89
2019-07-22 06:00:00 23.7 6 Sur 8 Sur 0 -- -- 88
2019-07-22 05:00:00 24.3 4 Oeste 6 Sur 0 -- -- 87
2019-07-22 04:00:00 25 0 Calma 5 Oeste 0 -- -- 85
2019-07-22 03:00:00 24.6 4 Oeste 8 Sur 0 -- -- 86
2019-07-22 02:00:00 23.8 4 Sudoeste 10 Sudoeste 0 -- -- 86
2019-07-22 01:00:00 25.1 4 Norte 11 Nordeste 0 -- -- 81
2019-07-22 00:00:00 24.8 11 Nordeste 14 Nordeste 0 -- -- 82
2019-07-21 23:00:00 24.7 8 Nordeste 13 Nordeste 0 -- -- 77
2019-07-21 22:00:00 25.3 8 Nordeste 10 Nordeste 0 -- -- 75
2019-07-21 21:00:00 26.2 3 Nordeste 5 Nordeste 0 -- -- 74
2019-07-21 20:00:00 27.3 3 Nordeste 5 Nordeste 0 -- -- 74
2019-07-21 19:00:00 27.4 3 Nordeste 5 Sudeste 0 -- -- 75
2019-07-21 18:00:00 27.3 3 Sudeste 5 Sur 0 -- -- 73
2019-07-21 17:00:00 26.5 3 Este 5 Este 0 -- -- 80
2019-07-21 16:00:00 27.2 3 Sudeste 8 Este 0 -- -- 76
2019-07-21 15:00:00 27.9 5 Este 9 Este 0 -- -- 72
2019-07-21 14:00:00 28.5 7 Este 8 Este 0 -- -- 66
2019-07-21 13:00:00 26.5 3 Este 6 Sudeste 0 -- -- 71
2019-07-21 12:00:00 25.2 5 Sudeste 6 Sudeste 0 -- -- 75
2019-07-21 11:00:00 27.2 3 Este 5 Este 0 -- -- 67
2019-07-21 10:00:00 25.6 3 Nordeste 6 Nordeste 0 -- -- 72
2019-07-21 09:00:00 23.4 3 Este 6 Nordeste 0 -- -- 81
2019-07-21 08:00:00 21.2 3 Este 7 Sudeste 0 -- -- 87
2019-07-21 07:00:00 21.5 0 Calma 4 Noroeste 0 -- -- 84
2019-07-21 06:00:00 21.9 4 Norte 8 Sudoeste 0 -- -- 83
2019-07-21 05:00:00 23.7 5 Oeste 10 Oeste 0 -- -- 75
2019-07-21 04:00:00 22.4 6 Oeste 15 Norte 0 -- -- 81
2019-07-21 03:00:00 25.3 10 Norte 18 Norte 0 -- -- 70
2019-07-21 02:00:00 25.3 8 Norte 14 Norte 0 -- -- 74
2019-07-21 01:00:00 23.6 0 Calma 6 Noroeste 0 -- -- 77
2019-07-21 00:00:00 26.1 5 Norte 9 Norte 0 -- -- 72